sensor_id;sensor_type;location;lat;lon;timestamp;P1;durP1;ratioP1;P2;durP2;ratioP2
36709;SDS011;22694;51.040;3.684;2022-09-09T00:01:46;2.65;;;0.55;;
36709;SDS011;22694;51.040;3.684;2022-09-09T00:04:34;3.00;;;0.70;;
36709;SDS011;22694;51.040;3.684;2022-09-09T00:15:33;3.05;;;0.80;;
36709;SDS011;22694;51.040;3.684;2022-09-09T00:18:17;1.35;;;0.73;;
36709;SDS011;22694;51.040;3.684;2022-09-09T00:20:58;3.08;;;1.20;;
36709;SDS011;22694;51.040;3.684;2022-09-09T00:23:35;1.00;;;0.73;;
36709;SDS011;22694;51.040;3.684;2022-09-09T00:28:39;2.40;;;0.70;;
36709;SDS011;22694;51.040;3.684;2022-09-09T00:31:20;4.30;;;1.35;;
36709;SDS011;22694;51.040;3.684;2022-09-09T00:33:50;4.00;;;0.88;;
36709;SDS011;22694;51.040;3.684;2022-09-09T00:36:18;4.93;;;1.05;;
36709;SDS011;22694;51.040;3.684;2022-09-09T00:38:52;3.35;;;0.80;;
36709;SDS011;22694;51.040;3.684;2022-09-09T00:41:23;2.95;;;0.68;;
36709;SDS011;22694;51.040;3.684;2022-09-09T00:44:11;2.78;;;0.85;;
36709;SDS011;22694;51.040;3.684;2022-09-09T00:49:28;3.75;;;0.90;;
36709;SDS011;22694;51.040;3.684;2022-09-09T00:52:19;1.65;;;0.73;;
36709;SDS011;22694;51.040;3.684;2022-09-09T00:57:44;2.72;;;0.70;;
36709;SDS011;22694;51.040;3.684;2022-09-09T01:08:06;2.25;;;0.50;;
36709;SDS011;22694;51.040;3.684;2022-09-09T01:10:55;1.77;;;0.75;;
36709;SDS011;22694;51.040;3.684;2022-09-09T01:13:24;1.20;;;0.60;;
36709;SDS011;22694;51.040;3.684;2022-09-09T01:15:55;2.17;;;0.50;;
36709;SDS011;22694;51.040;3.684;2022-09-09T01:18:26;3.67;;;0.80;;
36709;SDS011;22694;51.040;3.684;2022-09-09T01:23:35;1.90;;;0.50;;
36709;SDS011;22694;51.040;3.684;2022-09-09T01:26:19;1.80;;;0.70;;
36709;SDS011;22694;51.040;3.684;2022-09-09T01:29:22;1.55;;;0.70;;
36709;SDS011;22694;51.040;3.684;2022-09-09T01:31:55;3.88;;;0.70;;
36709;SDS011;22694;51.040;3.684;2022-09-09T01:34:24;1.10;;;0.70;;
36709;SDS011;22694;51.040;3.684;2022-09-09T01:37:00;3.50;;;0.60;;
36709;SDS011;22694;51.040;3.684;2022-09-09T01:39:32;3.63;;;0.70;;
36709;SDS011;22694;51.040;3.684;2022-09-09T01:41:59;2.55;;;0.70;;
36709;SDS011;22694;51.040;3.684;2022-09-09T01:44:26;2.00;;;0.90;;
36709;SDS011;22694;51.040;3.684;2022-09-09T01:46:54;2.85;;;0.52;;
36709;SDS011;22694;51.040;3.684;2022-09-09T01:49:19;2.05;;;0.40;;
36709;SDS011;22694;51.040;3.684;2022-09-09T01:51:46;4.97;;;0.55;;
36709;SDS011;22694;51.040;3.684;2022-09-09T01:54:16;2.97;;;0.70;;
36709;SDS011;22694;51.040;3.684;2022-09-09T01:59:09;3.13;;;0.73;;
36709;SDS011;22694;51.040;3.684;2022-09-09T02:01:51;1.52;;;0.70;;
36709;SDS011;22694;51.040;3.684;2022-09-09T02:04:39;1.30;;;0.47;;
36709;SDS011;22694;51.040;3.684;2022-09-09T02:07:12;3.65;;;1.02;;
36709;SDS011;22694;51.040;3.684;2022-09-09T02:10:09;0.90;;;0.60;;
36709;SDS011;22694;51.040;3.684;2022-09-09T02:12:45;5.53;;;0.75;;
36709;SDS011;22694;51.040;3.684;2022-09-09T02:15:26;1.98;;;0.63;;
36709;SDS011;22694;51.040;3.684;2022-09-09T02:18:08;1.30;;;0.55;;
36709;SDS011;22694;51.040;3.684;2022-09-09T02:20:37;2.85;;;0.85;;
36709;SDS011;22694;51.040;3.684;2022-09-09T02:23:04;2.10;;;0.52;;
36709;SDS011;22694;51.040;3.684;2022-09-09T02:25:33;3.88;;;0.60;;
36709;SDS011;22694;51.040;3.684;2022-09-09T02:28:01;1.42;;;0.60;;
36709;SDS011;22694;51.040;3.684;2022-09-09T02:30:29;1.98;;;0.50;;
36709;SDS011;22694;51.040;3.684;2022-09-09T02:32:59;2.38;;;0.80;;
36709;SDS011;22694;51.040;3.684;2022-09-09T02:35:28;1.90;;;0.68;;
36709;SDS011;22694;51.040;3.684;2022-09-09T02:37:56;1.55;;;0.90;;
36709;SDS011;22694;51.040;3.684;2022-09-09T02:40:26;2.47;;;0.77;;
36709;SDS011;22694;51.040;3.684;2022-09-09T02:42:51;2.38;;;0.50;;
36709;SDS011;22694;51.040;3.684;2022-09-09T02:45:20;3.20;;;0.68;;
36709;SDS011;22694;51.040;3.684;2022-09-09T02:50:38;1.80;;;0.68;;
36709;SDS011;22694;51.040;3.684;2022-09-09T02:58:05;3.60;;;0.80;;
36709;SDS011;22694;51.040;3.684;2022-09-09T03:00:34;3.15;;;0.80;;
36709;SDS011;22694;51.040;3.684;2022-09-09T03:03:04;2.38;;;0.95;;
36709;SDS011;22694;51.040;3.684;2022-09-09T03:05:31;3.53;;;0.75;;
36709;SDS011;22694;51.040;3.684;2022-09-09T03:07:57;2.13;;;0.77;;
36709;SDS011;22694;51.040;3.684;2022-09-09T03:10:23;2.75;;;0.80;;
36709;SDS011;22694;51.040;3.684;2022-09-09T03:12:49;3.15;;;0.82;;
36709;SDS011;22694;51.040;3.684;2022-09-09T03:15:15;2.25;;;0.90;;
36709;SDS011;22694;51.040;3.684;2022-09-09T03:17:41;3.80;;;0.70;;
36709;SDS011;22694;51.040;3.684;2022-09-09T03:20:07;3.40;;;1.05;;
36709;SDS011;22694;51.040;3.684;2022-09-09T03:22:33;2.47;;;0.77;;
36709;SDS011;22694;51.040;3.684;2022-09-09T03:24:59;5.53;;;1.10;;
36709;SDS011;22694;51.040;3.684;2022-09-09T03:27:25;4.07;;;1.00;;
36709;SDS011;22694;51.040;3.684;2022-09-09T03:29:51;3.70;;;1.17;;
36709;SDS011;22694;51.040;3.684;2022-09-09T03:32:17;2.15;;;1.00;;
36709;SDS011;22694;51.040;3.684;2022-09-09T03:34:44;2.25;;;1.10;;
36709;SDS011;22694;51.040;3.684;2022-09-09T03:37:09;3.03;;;0.90;;
36709;SDS011;22694;51.040;3.684;2022-09-09T03:39:35;7.53;;;1.40;;
36709;SDS011;22694;51.040;3.684;2022-09-09T03:42:01;4.82;;;1.15;;
36709;SDS011;22694;51.040;3.684;2022-09-09T03:44:29;3.00;;;1.10;;
36709;SDS011;22694;51.040;3.684;2022-09-09T03:46:55;1.98;;;0.88;;
36709;SDS011;22694;51.040;3.684;2022-09-09T03:49:21;3.75;;;1.00;;
36709;SDS011;22694;51.040;3.684;2022-09-09T03:51:47;2.03;;;0.80;;
36709;SDS011;22694;51.040;3.684;2022-09-09T03:54:13;2.80;;;0.77;;
36709;SDS011;22694;51.040;3.684;2022-09-09T03:56:39;3.75;;;1.20;;
36709;SDS011;22694;51.040;3.684;2022-09-09T03:59:06;3.72;;;1.20;;
36709;SDS011;22694;51.040;3.684;2022-09-09T04:01:33;6.15;;;1.48;;
36709;SDS011;22694;51.040;3.684;2022-09-09T04:03:59;2.42;;;1.10;;
36709;SDS011;22694;51.040;3.684;2022-09-09T04:06:25;3.50;;;1.20;;
36709;SDS011;22694;51.040;3.684;2022-09-09T04:08:51;4.88;;;1.02;;
36709;SDS011;22694;51.040;3.684;2022-09-09T04:11:17;4.15;;;1.17;;
36709;SDS011;22694;51.040;3.684;2022-09-09T04:13:43;3.83;;;1.15;;
36709;SDS011;22694;51.040;3.684;2022-09-09T04:16:09;5.72;;;1.45;;
36709;SDS011;22694;51.040;3.684;2022-09-09T04:18:38;4.07;;;1.17;;
36709;SDS011;22694;51.040;3.684;2022-09-09T04:21:03;4.75;;;1.00;;
36709;SDS011;22694;51.040;3.684;2022-09-09T04:23:31;4.45;;;0.95;;
36709;SDS011;22694;51.040;3.684;2022-09-09T04:25:59;4.13;;;0.80;;
36709;SDS011;22694;51.040;3.684;2022-09-09T04:28:26;2.25;;;0.90;;
36709;SDS011;22694;51.040;3.684;2022-09-09T04:30:54;3.30;;;1.52;;
36709;SDS011;22694;51.040;3.684;2022-09-09T04:33:20;4.15;;;0.82;;
36709;SDS011;22694;51.040;3.684;2022-09-09T04:35:48;5.15;;;1.30;;
36709;SDS011;22694;51.040;3.684;2022-09-09T04:38:15;4.85;;;1.33;;
36709;SDS011;22694;51.040;3.684;2022-09-09T04:40:48;4.43;;;1.13;;
36709;SDS011;22694;51.040;3.684;2022-09-09T04:43:16;3.17;;;1.10;;
36709;SDS011;22694;51.040;3.684;2022-09-09T04:45:44;3.60;;;1.10;;
36709;SDS011;22694;51.040;3.684;2022-09-09T04:48:12;6.93;;;1.48;;
36709;SDS011;22694;51.040;3.684;2022-09-09T04:50:38;3.50;;;1.05;;
36709;SDS011;22694;51.040;3.684;2022-09-09T04:53:05;2.95;;;0.90;;
36709;SDS011;22694;51.040;3.684;2022-09-09T04:55:31;3.30;;;1.10;;
36709;SDS011;22694;51.040;3.684;2022-09-09T04:58:02;1.63;;;0.70;;
36709;SDS011;22694;51.040;3.684;2022-09-09T05:00:33;4.20;;;1.08;;
36709;SDS011;22694;51.040;3.684;2022-09-09T05:03:02;1.35;;;0.70;;
36709;SDS011;22694;51.040;3.684;2022-09-09T05:05:29;2.45;;;0.60;;
36709;SDS011;22694;51.040;3.684;2022-09-09T05:08:00;1.83;;;0.70;;
36709;SDS011;22694;51.040;3.684;2022-09-09T05:10:30;2.42;;;0.73;;
36709;SDS011;22694;51.040;3.684;2022-09-09T05:12:55;2.67;;;0.70;;
36709;SDS011;22694;51.040;3.684;2022-09-09T05:15:21;3.17;;;0.90;;
36709;SDS011;22694;51.040;3.684;2022-09-09T05:17:47;3.40;;;0.90;;
36709;SDS011;22694;51.040;3.684;2022-09-09T05:20:12;2.20;;;0.80;;
36709;SDS011;22694;51.040;3.684;2022-09-09T05:22:38;2.33;;;0.82;;
36709;SDS011;22694;51.040;3.684;2022-09-09T05:25:04;1.80;;;1.05;;
36709;SDS011;22694;51.040;3.684;2022-09-09T05:27:30;3.55;;;0.82;;
36709;SDS011;22694;51.040;3.684;2022-09-09T05:29:58;2.08;;;0.70;;
36709;SDS011;22694;51.040;3.684;2022-09-09T05:32:23;5.18;;;1.25;;
36709;SDS011;22694;51.040;3.684;2022-09-09T05:34:49;2.70;;;1.00;;
36709;SDS011;22694;51.040;3.684;2022-09-09T05:37:16;1.92;;;0.70;;
36709;SDS011;22694;51.040;3.684;2022-09-09T05:39:42;2.80;;;0.90;;
36709;SDS011;22694;51.040;3.684;2022-09-09T05:42:07;2.83;;;0.90;;
36709;SDS011;22694;51.040;3.684;2022-09-09T05:44:33;2.45;;;0.90;;
36709;SDS011;22694;51.040;3.684;2022-09-09T05:46:59;1.95;;;0.90;;
36709;SDS011;22694;51.040;3.684;2022-09-09T05:49:25;2.17;;;0.70;;
36709;SDS011;22694;51.040;3.684;2022-09-09T05:51:51;1.48;;;0.75;;
36709;SDS011;22694;51.040;3.684;2022-09-09T05:54:17;3.08;;;0.90;;
36709;SDS011;22694;51.040;3.684;2022-09-09T05:56:42;2.88;;;1.02;;
36709;SDS011;22694;51.040;3.684;2022-09-09T05:59:08;2.40;;;0.85;;
36709;SDS011;22694;51.040;3.684;2022-09-09T06:01:35;2.95;;;1.05;;
36709;SDS011;22694;51.040;3.684;2022-09-09T06:04:05;4.00;;;1.20;;
36709;SDS011;22694;51.040;3.684;2022-09-09T06:06:32;2.70;;;0.98;;
36709;SDS011;22694;51.040;3.684;2022-09-09T06:09:02;3.75;;;1.20;;
36709;SDS011;22694;51.040;3.684;2022-09-09T06:11:31;1.67;;;0.90;;
36709;SDS011;22694;51.040;3.684;2022-09-09T06:13:57;2.15;;;0.85;;
36709;SDS011;22694;51.040;3.684;2022-09-09T06:16:24;3.30;;;1.02;;
36709;SDS011;22694;51.040;3.684;2022-09-09T06:18:52;3.15;;;1.27;;
36709;SDS011;22694;51.040;3.684;2022-09-09T06:21:22;3.17;;;1.08;;
36709;SDS011;22694;51.040;3.684;2022-09-09T06:23:55;3.15;;;1.25;;
36709;SDS011;22694;51.040;3.684;2022-09-09T06:26:25;1.85;;;0.88;;
36709;SDS011;22694;51.040;3.684;2022-09-09T06:28:53;2.15;;;0.80;;
36709;SDS011;22694;51.040;3.684;2022-09-09T06:31:20;2.00;;;0.80;;
36709;SDS011;22694;51.040;3.684;2022-09-09T06:33:47;2.47;;;0.88;;
36709;SDS011;22694;51.040;3.684;2022-09-09T06:36:18;2.67;;;1.00;;
36709;SDS011;22694;51.040;3.684;2022-09-09T06:38:49;1.93;;;0.90;;
36709;SDS011;22694;51.040;3.684;2022-09-09T06:41:16;3.47;;;1.00;;
36709;SDS011;22694;51.040;3.684;2022-09-09T06:43:43;2.50;;;0.88;;
36709;SDS011;22694;51.040;3.684;2022-09-09T06:48:36;3.53;;;0.95;;
36709;SDS011;22694;51.040;3.684;2022-09-09T06:53:33;3.03;;;0.90;;
36709;SDS011;22694;51.040;3.684;2022-09-09T06:56:15;3.45;;;1.10;;
36709;SDS011;22694;51.040;3.684;2022-09-09T06:58:48;2.90;;;1.20;;
36709;SDS011;22694;51.040;3.684;2022-09-09T07:01:16;2.40;;;0.90;;
36709;SDS011;22694;51.040;3.684;2022-09-09T07:03:50;3.45;;;0.80;;
36709;SDS011;22694;51.040;3.684;2022-09-09T07:06:19;3.13;;;0.90;;
36709;SDS011;22694;51.040;3.684;2022-09-09T07:08:50;2.17;;;0.98;;
36709;SDS011;22694;51.040;3.684;2022-09-09T07:11:18;3.28;;;1.35;;
36709;SDS011;22694;51.040;3.684;2022-09-09T07:13:45;3.78;;;1.23;;
36709;SDS011;22694;51.040;3.684;2022-09-09T07:16:11;4.75;;;1.00;;
36709;SDS011;22694;51.040;3.684;2022-09-09T07:18:39;4.50;;;1.08;;
36709;SDS011;22694;51.040;3.684;2022-09-09T07:21:07;4.45;;;1.20;;
36709;SDS011;22694;51.040;3.684;2022-09-09T07:23:34;3.75;;;1.10;;
36709;SDS011;22694;51.040;3.684;2022-09-09T07:26:00;4.25;;;1.10;;
36709;SDS011;22694;51.040;3.684;2022-09-09T07:28:26;1.92;;;0.98;;
36709;SDS011;22694;51.040;3.684;2022-09-09T07:30:57;3.13;;;1.02;;
36709;SDS011;22694;51.040;3.684;2022-09-09T07:33:30;3.05;;;1.08;;
36709;SDS011;22694;51.040;3.684;2022-09-09T07:38:43;5.50;;;1.42;;
36709;SDS011;22694;51.040;3.684;2022-09-09T07:41:11;4.10;;;1.48;;
36709;SDS011;22694;51.040;3.684;2022-09-09T07:43:50;4.63;;;1.50;;
36709;SDS011;22694;51.040;3.684;2022-09-09T07:46:17;2.83;;;1.20;;
36709;SDS011;22694;51.040;3.684;2022-09-09T07:48:47;2.30;;;1.33;;
36709;SDS011;22694;51.040;3.684;2022-09-09T07:51:16;5.45;;;0.90;;
36709;SDS011;22694;51.040;3.684;2022-09-09T07:53:45;2.85;;;1.00;;
36709;SDS011;22694;51.040;3.684;2022-09-09T07:56:12;4.97;;;0.90;;
36709;SDS011;22694;51.040;3.684;2022-09-09T07:58:41;3.88;;;1.60;;
36709;SDS011;22694;51.040;3.684;2022-09-09T08:01:10;4.53;;;0.93;;
36709;SDS011;22694;51.040;3.684;2022-09-09T08:03:38;5.35;;;1.13;;
36709;SDS011;22694;51.040;3.684;2022-09-09T08:06:06;6.15;;;1.42;;
36709;SDS011;22694;51.040;3.684;2022-09-09T08:08:33;4.60;;;1.30;;
36709;SDS011;22694;51.040;3.684;2022-09-09T08:11:11;2.80;;;1.02;;
36709;SDS011;22694;51.040;3.684;2022-09-09T08:13:38;2.28;;;0.90;;
36709;SDS011;22694;51.040;3.684;2022-09-09T08:16:09;3.80;;;1.40;;
36709;SDS011;22694;51.040;3.684;2022-09-09T08:18:37;3.42;;;1.20;;
36709;SDS011;22694;51.040;3.684;2022-09-09T08:21:17;4.82;;;1.65;;
36709;SDS011;22694;51.040;3.684;2022-09-09T08:23:44;4.38;;;1.20;;
36709;SDS011;22694;51.040;3.684;2022-09-09T08:28:46;3.95;;;1.10;;
36709;SDS011;22694;51.040;3.684;2022-09-09T08:31:13;4.05;;;0.90;;
36709;SDS011;22694;51.040;3.684;2022-09-09T08:33:41;2.85;;;1.00;;
36709;SDS011;22694;51.040;3.684;2022-09-09T08:36:09;3.67;;;1.10;;
36709;SDS011;22694;51.040;3.684;2022-09-09T08:38:36;3.45;;;1.30;;
36709;SDS011;22694;51.040;3.684;2022-09-09T08:43:47;2.47;;;1.10;;
36709;SDS011;22694;51.040;3.684;2022-09-09T08:46:21;4.57;;;1.17;;
36709;SDS011;22694;51.040;3.684;2022-09-09T08:52:19;2.47;;;0.98;;
36709;SDS011;22694;51.040;3.684;2022-09-09T08:54:50;3.65;;;1.40;;
36709;SDS011;22694;51.040;3.684;2022-09-09T08:57:21;4.97;;;1.13;;
36709;SDS011;22694;51.040;3.684;2022-09-09T08:59:51;3.33;;;1.08;;
36709;SDS011;22694;51.040;3.684;2022-09-09T09:07:48;2.85;;;1.20;;
36709;SDS011;22694;51.040;3.684;2022-09-09T09:15:56;4.65;;;1.20;;
36709;SDS011;22694;51.040;3.684;2022-09-09T09:18:27;3.95;;;1.35;;
36709;SDS011;22694;51.040;3.684;2022-09-09T09:21:04;2.67;;;1.13;;
36709;SDS011;22694;51.040;3.684;2022-09-09T09:23:36;4.45;;;1.20;;
36709;SDS011;22694;51.040;3.684;2022-09-09T09:26:09;4.80;;;1.48;;
36709;SDS011;22694;51.040;3.684;2022-09-09T09:28:38;3.85;;;1.10;;
36709;SDS011;22694;51.040;3.684;2022-09-09T09:31:14;2.97;;;1.00;;
36709;SDS011;22694;51.040;3.684;2022-09-09T09:36:11;6.50;;;1.20;;
36709;SDS011;22694;51.040;3.684;2022-09-09T09:38:40;4.93;;;1.33;;
36709;SDS011;22694;51.040;3.684;2022-09-09T09:46:53;4.20;;;1.05;;
36709;SDS011;22694;51.040;3.684;2022-09-09T09:49:30;4.35;;;1.10;;
36709;SDS011;22694;51.040;3.684;2022-09-09T09:52:00;4.65;;;1.33;;
36709;SDS011;22694;51.040;3.684;2022-09-09T09:54:30;3.22;;;1.15;;
36709;SDS011;22694;51.040;3.684;2022-09-09T09:57:08;2.92;;;1.17;;
36709;SDS011;22694;51.040;3.684;2022-09-09T09:59:39;2.50;;;0.95;;
36709;SDS011;22694;51.040;3.684;2022-09-09T10:04:39;4.05;;;1.25;;
36709;SDS011;22694;51.040;3.684;2022-09-09T10:07:11;2.28;;;1.15;;
36709;SDS011;22694;51.040;3.684;2022-09-09T10:09:49;5.45;;;1.67;;
36709;SDS011;22694;51.040;3.684;2022-09-09T10:12:43;3.35;;;0.90;;
36709;SDS011;22694;51.040;3.684;2022-09-09T10:20:46;2.63;;;1.05;;
36709;SDS011;22694;51.040;3.684;2022-09-09T10:26:34;2.33;;;0.60;;
36709;SDS011;22694;51.040;3.684;2022-09-09T10:40:46;4.88;;;1.98;;
36709;SDS011;22694;51.040;3.684;2022-09-09T10:42:56;3.65;;;1.27;;
36709;SDS011;22694;51.040;3.684;2022-09-09T10:48:24;3.72;;;1.20;;
36709;SDS011;22694;51.040;3.684;2022-09-09T10:51:23;4.10;;;1.17;;
36709;SDS011;22694;51.040;3.684;2022-09-09T10:54:06;5.28;;;1.45;;
36709;SDS011;22694;51.040;3.684;2022-09-09T10:56:42;4.53;;;1.40;;
36709;SDS011;22694;51.040;3.684;2022-09-09T10:59:19;3.33;;;1.30;;
36709;SDS011;22694;51.040;3.684;2022-09-09T11:04:38;3.15;;;1.35;;
36709;SDS011;22694;51.040;3.684;2022-09-09T11:07:10;6.07;;;1.85;;
36709;SDS011;22694;51.040;3.684;2022-09-09T11:09:46;20.67;;;6.15;;
36709;SDS011;22694;51.040;3.684;2022-09-09T11:12:18;28.52;;;9.63;;
36709;SDS011;22694;51.040;3.684;2022-09-09T11:14:53;34.92;;;12.18;;
36709;SDS011;22694;51.040;3.684;2022-09-09T11:17:40;35.28;;;11.82;;
36709;SDS011;22694;51.040;3.684;2022-09-09T11:20:14;24.40;;;9.00;;
36709;SDS011;22694;51.040;3.684;2022-09-09T11:23:02;22.70;;;8.02;;
36709;SDS011;22694;51.040;3.684;2022-09-09T11:25:32;21.15;;;7.45;;
36709;SDS011;22694;51.040;3.684;2022-09-09T11:33:41;18.92;;;5.45;;
36709;SDS011;22694;51.040;3.684;2022-09-09T11:36:26;20.77;;;6.78;;
36709;SDS011;22694;51.040;3.684;2022-09-09T11:42:05;14.68;;;5.57;;
36709;SDS011;22694;51.040;3.684;2022-09-09T11:44:51;13.73;;;5.00;;
36709;SDS011;22694;51.040;3.684;2022-09-09T11:47:26;11.98;;;5.13;;
36709;SDS011;22694;51.040;3.684;2022-09-09T11:49:55;11.88;;;4.40;;
36709;SDS011;22694;51.040;3.684;2022-09-09T11:52:42;15.88;;;5.38;;
36709;SDS011;22694;51.040;3.684;2022-09-09T11:55:11;12.73;;;4.53;;
36709;SDS011;22694;51.040;3.684;2022-09-09T11:58:04;12.70;;;4.78;;
36709;SDS011;22694;51.040;3.684;2022-09-09T12:08:53;7.70;;;2.58;;
36709;SDS011;22694;51.040;3.684;2022-09-09T12:11:26;8.80;;;2.33;;
36709;SDS011;22694;51.040;3.684;2022-09-09T12:13:59;7.20;;;2.25;;
36709;SDS011;22694;51.040;3.684;2022-09-09T12:16:35;4.75;;;1.58;;
36709;SDS011;22694;51.040;3.684;2022-09-09T12:19:15;7.68;;;1.88;;
36709;SDS011;22694;51.040;3.684;2022-09-09T12:24:18;5.03;;;1.60;;
36709;SDS011;22694;51.040;3.684;2022-09-09T12:27:03;3.55;;;1.38;;
36709;SDS011;22694;51.040;3.684;2022-09-09T12:29:44;4.57;;;1.30;;
36709;SDS011;22694;51.040;3.684;2022-09-09T12:32:24;4.07;;;1.48;;
36709;SDS011;22694;51.040;3.684;2022-09-09T12:34:59;2.83;;;1.42;;
36709;SDS011;22694;51.040;3.684;2022-09-09T12:37:39;3.78;;;1.45;;
36709;SDS011;22694;51.040;3.684;2022-09-09T12:40:21;2.72;;;1.08;;
36709;SDS011;22694;51.040;3.684;2022-09-09T12:42:51;3.60;;;0.98;;
36709;SDS011;22694;51.040;3.684;2022-09-09T12:45:21;3.53;;;1.40;;
36709;SDS011;22694;51.040;3.684;2022-09-09T12:48:05;4.18;;;1.33;;
36709;SDS011;22694;51.040;3.684;2022-09-09T12:50:49;2.35;;;0.82;;
36709;SDS011;22694;51.040;3.684;2022-09-09T12:53:21;4.00;;;1.10;;
36709;SDS011;22694;51.040;3.684;2022-09-09T12:56:18;3.53;;;1.20;;
36709;SDS011;22694;51.040;3.684;2022-09-09T12:58:45;3.30;;;1.10;;
36709;SDS011;22694;51.040;3.684;2022-09-09T13:01:26;2.80;;;1.00;;
36709;SDS011;22694;51.040;3.684;2022-09-09T13:03:53;3.25;;;1.10;;
36709;SDS011;22694;51.040;3.684;2022-09-09T13:06:21;2.60;;;1.05;;
36709;SDS011;22694;51.040;3.684;2022-09-09T13:08:49;2.22;;;0.95;;
36709;SDS011;22694;51.040;3.684;2022-09-09T13:11:17;2.72;;;1.17;;
36709;SDS011;22694;51.040;3.684;2022-09-09T13:14:05;2.88;;;1.10;;
36709;SDS011;22694;51.040;3.684;2022-09-09T13:16:34;1.70;;;1.00;;
36709;SDS011;22694;51.040;3.684;2022-09-09T13:19:13;1.48;;;0.90;;
36709;SDS011;22694;51.040;3.684;2022-09-09T13:21:40;2.25;;;0.88;;
36709;SDS011;22694;51.040;3.684;2022-09-09T13:24:23;2.42;;;1.17;;
36709;SDS011;22694;51.040;3.684;2022-09-09T13:26:58;2.05;;;0.95;;
36709;SDS011;22694;51.040;3.684;2022-09-09T13:29:30;3.80;;;1.20;;
36709;SDS011;22694;51.040;3.684;2022-09-09T13:32:03;3.10;;;1.25;;
36709;SDS011;22694;51.040;3.684;2022-09-09T13:34:34;5.18;;;1.92;;
36709;SDS011;22694;51.040;3.684;2022-09-09T13:37:17;3.40;;;1.40;;
36709;SDS011;22694;51.040;3.684;2022-09-09T13:39:58;3.47;;;1.45;;
36709;SDS011;22694;51.040;3.684;2022-09-09T13:42:26;1.85;;;1.00;;
36709;SDS011;22694;51.040;3.684;2022-09-09T13:44:56;1.80;;;1.00;;
36709;SDS011;22694;51.040;3.684;2022-09-09T13:47:29;3.70;;;1.38;;
36709;SDS011;22694;51.040;3.684;2022-09-09T13:49:57;2.63;;;1.40;;
36709;SDS011;22694;51.040;3.684;2022-09-09T13:52:22;2.40;;;1.30;;
36709;SDS011;22694;51.040;3.684;2022-09-09T13:54:49;2.95;;;1.40;;
36709;SDS011;22694;51.040;3.684;2022-09-09T13:57:19;2.70;;;1.35;;
36709;SDS011;22694;51.040;3.684;2022-09-09T13:59:47;4.55;;;1.67;;
36709;SDS011;22694;51.040;3.684;2022-09-09T14:02:16;3.55;;;1.60;;
36709;SDS011;22694;51.040;3.684;2022-09-09T14:04:42;3.55;;;1.50;;
36709;SDS011;22694;51.040;3.684;2022-09-09T14:07:11;6.78;;;1.75;;
36709;SDS011;22694;51.040;3.684;2022-09-09T14:09:39;4.15;;;1.88;;
36709;SDS011;22694;51.040;3.684;2022-09-09T14:12:05;3.55;;;1.65;;
36709;SDS011;22694;51.040;3.684;2022-09-09T14:14:35;4.03;;;1.75;;
36709;SDS011;22694;51.040;3.684;2022-09-09T14:17:01;4.10;;;2.03;;
36709;SDS011;22694;51.040;3.684;2022-09-09T14:19:28;3.22;;;1.20;;
36709;SDS011;22694;51.040;3.684;2022-09-09T14:21:53;3.72;;;1.70;;
36709;SDS011;22694;51.040;3.684;2022-09-09T14:24:19;4.53;;;2.15;;
36709;SDS011;22694;51.040;3.684;2022-09-09T14:26:45;3.40;;;1.73;;
36709;SDS011;22694;51.040;3.684;2022-09-09T14:29:10;4.30;;;1.80;;
36709;SDS011;22694;51.040;3.684;2022-09-09T14:31:38;3.05;;;1.60;;
36709;SDS011;22694;51.040;3.684;2022-09-09T14:34:04;2.30;;;1.23;;
36709;SDS011;22694;51.040;3.684;2022-09-09T14:36:30;3.47;;;1.55;;
36709;SDS011;22694;51.040;3.684;2022-09-09T14:38:56;3.90;;;1.35;;
36709;SDS011;22694;51.040;3.684;2022-09-09T14:41:22;2.47;;;1.30;;
36709;SDS011;22694;51.040;3.684;2022-09-09T14:43:48;2.67;;;1.13;;
36709;SDS011;22694;51.040;3.684;2022-09-09T14:46:15;2.08;;;1.20;;
36709;SDS011;22694;51.040;3.684;2022-09-09T14:48:42;3.33;;;1.20;;
36709;SDS011;22694;51.040;3.684;2022-09-09T14:51:13;3.03;;;1.38;;
36709;SDS011;22694;51.040;3.684;2022-09-09T14:53:44;1.92;;;1.20;;
36709;SDS011;22694;51.040;3.684;2022-09-09T14:56:14;5.10;;;1.33;;
36709;SDS011;22694;51.040;3.684;2022-09-09T14:58:42;2.83;;;1.15;;
36709;SDS011;22694;51.040;3.684;2022-09-09T15:01:10;2.58;;;1.20;;
36709;SDS011;22694;51.040;3.684;2022-09-09T15:03:38;2.05;;;1.30;;
36709;SDS011;22694;51.040;3.684;2022-09-09T15:06:05;3.80;;;2.03;;
36709;SDS011;22694;51.040;3.684;2022-09-09T15:08:36;2.90;;;1.60;;
36709;SDS011;22694;51.040;3.684;2022-09-09T15:11:02;5.05;;;1.83;;
36709;SDS011;22694;51.040;3.684;2022-09-09T15:13:29;33.47;;;14.32;;
36709;SDS011;22694;51.040;3.684;2022-09-09T15:15:56;35.25;;;12.90;;
36709;SDS011;22694;51.040;3.684;2022-09-09T15:18:28;21.35;;;8.48;;
36709;SDS011;22694;51.040;3.684;2022-09-09T15:20:54;18.83;;;7.55;;
36709;SDS011;22694;51.040;3.684;2022-09-09T15:23:19;15.05;;;5.28;;
36709;SDS011;22694;51.040;3.684;2022-09-09T15:25:54;9.48;;;4.10;;
36709;SDS011;22694;51.040;3.684;2022-09-09T15:28:21;6.32;;;3.10;;
36709;SDS011;22694;51.040;3.684;2022-09-09T15:30:51;4.63;;;2.30;;
36709;SDS011;22694;51.040;3.684;2022-09-09T15:33:17;5.15;;;1.80;;
36709;SDS011;22694;51.040;3.684;2022-09-09T15:35:44;4.70;;;1.92;;
36709;SDS011;22694;51.040;3.684;2022-09-09T15:38:10;4.00;;;1.70;;
36709;SDS011;22694;51.040;3.684;2022-09-09T15:40:38;6.20;;;1.70;;
36709;SDS011;22694;51.040;3.684;2022-09-09T15:43:04;3.45;;;1.38;;
36709;SDS011;22694;51.040;3.684;2022-09-09T15:45:31;3.10;;;1.30;;
36709;SDS011;22694;51.040;3.684;2022-09-09T15:47:58;3.45;;;1.67;;
36709;SDS011;22694;51.040;3.684;2022-09-09T15:50:25;1.88;;;1.10;;
36709;SDS011;22694;51.040;3.684;2022-09-09T15:52:51;2.67;;;1.17;;
36709;SDS011;22694;51.040;3.684;2022-09-09T15:55:18;2.92;;;1.20;;
36709;SDS011;22694;51.040;3.684;2022-09-09T15:57:45;3.80;;;1.00;;
36709;SDS011;22694;51.040;3.684;2022-09-09T16:00:11;1.80;;;0.90;;
36709;SDS011;22694;51.040;3.684;2022-09-09T16:02:38;4.43;;;1.00;;
36709;SDS011;22694;51.040;3.684;2022-09-09T16:05:03;2.22;;;1.20;;
36709;SDS011;22694;51.040;3.684;2022-09-09T16:07:29;5.65;;;1.27;;
36709;SDS011;22694;51.040;3.684;2022-09-09T16:09:55;2.60;;;0.93;;
36709;SDS011;22694;51.040;3.684;2022-09-09T16:12:21;3.05;;;1.10;;
36709;SDS011;22694;51.040;3.684;2022-09-09T16:14:46;2.35;;;0.88;;
36709;SDS011;22694;51.040;3.684;2022-09-09T16:17:12;1.73;;;0.88;;
36709;SDS011;22694;51.040;3.684;2022-09-09T16:19:39;3.45;;;1.75;;
36709;SDS011;22694;51.040;3.684;2022-09-09T16:22:05;2.92;;;1.40;;
36709;SDS011;22694;51.040;3.684;2022-09-09T16:24:31;3.65;;;1.10;;
36709;SDS011;22694;51.040;3.684;2022-09-09T16:26:57;1.92;;;1.00;;
36709;SDS011;22694;51.040;3.684;2022-09-09T16:29:23;3.25;;;1.33;;
36709;SDS011;22694;51.040;3.684;2022-09-09T16:31:52;2.17;;;1.10;;
36709;SDS011;22694;51.040;3.684;2022-09-09T16:34:18;2.10;;;0.80;;
36709;SDS011;22694;51.040;3.684;2022-09-09T16:36:45;2.05;;;0.85;;
36709;SDS011;22694;51.040;3.684;2022-09-09T16:39:13;1.98;;;1.02;;
36709;SDS011;22694;51.040;3.684;2022-09-09T16:41:40;2.80;;;1.05;;
36709;SDS011;22694;51.040;3.684;2022-09-09T16:44:09;1.45;;;0.88;;
36709;SDS011;22694;51.040;3.684;2022-09-09T16:46:36;2.03;;;0.77;;
36709;SDS011;22694;51.040;3.684;2022-09-09T16:49:05;2.70;;;1.08;;
36709;SDS011;22694;51.040;3.684;2022-09-09T16:51:33;3.05;;;1.40;;
36709;SDS011;22694;51.040;3.684;2022-09-09T16:54:01;2.35;;;1.25;;
36709;SDS011;22694;51.040;3.684;2022-09-09T16:56:29;1.75;;;0.70;;
36709;SDS011;22694;51.040;3.684;2022-09-09T16:59:02;1.08;;;0.68;;
36709;SDS011;22694;51.040;3.684;2022-09-09T17:01:31;1.85;;;0.90;;
36709;SDS011;22694;51.040;3.684;2022-09-09T17:03:59;2.70;;;0.90;;
36709;SDS011;22694;51.040;3.684;2022-09-09T17:06:27;2.10;;;0.95;;
36709;SDS011;22694;51.040;3.684;2022-09-09T17:08:57;2.05;;;1.10;;